createdAt,value
2019-05-06T00:01:12.486Z,62.10
2019-05-06T00:03:16.429Z,62.08
2019-05-06T00:05:20.216Z,62.08
2019-05-06T00:07:24.355Z,62.14
2019-05-06T00:09:28.120Z,62.17
2019-05-06T00:11:31.912Z,62.23
2019-05-06T00:13:35.801Z,62.29
2019-05-06T00:15:39.710Z,62.39
2019-05-06T00:17:44.533Z,62.16
2019-05-06T00:19:48.421Z,62.28
2019-05-06T00:21:54.064Z,62.47
2019-05-06T00:23:58.012Z,62.60
2019-05-06T00:26:26.853Z,62.78
2019-05-06T00:28:37.648Z,63.08
2019-05-06T00:30:43.854Z,63.14
2019-05-06T00:32:47.716Z,62.97
2019-05-06T00:34:51.591Z,62.85
2019-05-06T00:36:55.441Z,62.99
2019-05-06T00:39:04.612Z,63.10
2019-05-06T00:41:11.320Z,63.03
2019-05-06T00:43:15.124Z,63.12
2019-05-06T00:45:18.932Z,63.14
2019-05-06T00:47:28.649Z,63.14
2019-05-06T00:49:34.396Z,63.10
2019-05-06T00:51:37.934Z,63.21
2019-05-06T00:53:45.191Z,63.23
2019-05-06T00:55:49.028Z,63.29
2019-05-06T00:57:54.446Z,63.39
2019-05-06T00:59:58.391Z,63.35
2019-05-06T01:02:04.464Z,63.32
2019-05-06T01:04:07.704Z,63.29
2019-05-06T01:06:11.508Z,63.27
2019-05-06T01:08:15.318Z,63.27
2019-05-06T01:10:19.357Z,63.30
2019-05-06T01:12:24.003Z,63.31
2019-05-06T01:14:44.271Z,63.35
2019-05-06T01:16:48.059Z,63.39
2019-05-06T01:18:54.029Z,63.34
2019-05-06T01:21:14.589Z,63.30
2019-05-06T01:23:18.099Z,63.33
2019-05-06T01:25:23.749Z,63.33
2019-05-06T01:27:27.513Z,63.31
2019-05-06T01:29:31.320Z,63.33
2019-05-06T01:31:42.877Z,63.48
2019-05-06T01:33:40.686Z,63.44
2019-05-06T01:35:44.522Z,63.45
2019-05-06T01:37:49.964Z,63.43
2019-05-06T01:42:20.974Z,63.71
2019-05-06T01:44:24.858Z,63.79
2019-05-06T01:46:28.660Z,63.76
2019-05-06T01:48:47.561Z,63.75
2019-05-06T01:50:51.351Z,63.80
2019-05-06T01:52:55.182Z,64.05
2019-05-06T01:54:58.949Z,64.12
2019-05-06T01:57:04.453Z,64.17
2019-05-06T01:59:08.510Z,63.96
2019-05-06T02:01:14.594Z,63.83
2019-05-06T02:03:17.994Z,63.76
2019-05-06T02:05:21.757Z,63.84
2019-05-06T02:07:25.553Z,63.98
2019-05-06T02:09:29.373Z,63.99
2019-05-06T02:11:33.763Z,63.72
2019-05-06T02:13:37.592Z,63.77
2019-05-06T02:15:41.397Z,63.63
2019-05-06T02:17:45.184Z,63.58
2019-05-06T02:19:49.010Z,63.70
2019-05-06T02:21:58.182Z,64.03
2019-05-06T02:24:04.277Z,64.05
2019-05-06T02:26:08.174Z,64.26
2019-05-06T02:28:14.289Z,64.31
2019-05-06T02:30:26.053Z,64.51
2019-05-06T02:32:50.403Z,64.66
2019-05-06T02:35:00.068Z,64.87
2019-05-06T02:37:08.451Z,65.03
2019-05-06T02:39:14.092Z,65.20
2019-05-06T02:41:17.744Z,65.42
2019-05-06T02:43:23.139Z,65.59
2019-05-06T02:45:27.185Z,65.73
2019-05-06T02:47:49.996Z,65.87
2019-05-06T02:49:57.078Z,66.09
2019-05-06T02:52:03.126Z,66.29
2019-05-06T02:54:06.570Z,66.60
2019-05-06T02:56:13.223Z,66.79
2019-05-06T02:58:15.795Z,66.91
2019-05-06T03:00:23.686Z,66.93
2019-05-06T03:02:38.081Z,66.78
2019-05-06T03:04:33.374Z,66.62
2019-05-06T03:06:37.143Z,66.40
2019-05-06T03:08:43.521Z,66.32
2019-05-06T03:10:47.586Z,66.29
2019-05-06T03:12:53.901Z,66.07
2019-05-06T03:14:57.793Z,66.07
2019-05-06T03:17:03.536Z,66.10
2019-05-06T03:19:07.118Z,66.17
2019-05-06T03:21:37.159Z,66.32
2019-05-06T03:23:44.360Z,66.23
2019-05-06T03:25:48.163Z,66.01
2019-05-06T03:27:53.241Z,66.13
2019-05-06T03:29:57.083Z,66.04
2019-05-06T03:32:06.053Z,66.01
2019-05-06T03:34:26.364Z,65.92
2019-05-06T03:36:18.519Z,65.84
2019-05-06T03:38:17.512Z,65.93
2019-05-06T03:40:23.020Z,65.87
2019-05-06T03:42:26.847Z,65.84
2019-05-06T03:44:33.083Z,65.74
2019-05-06T03:46:54.116Z,65.69
2019-05-06T03:49:03.659Z,65.69
2019-05-06T03:51:07.089Z,65.91
2019-05-06T03:53:13.997Z,66.12
2019-05-06T03:55:18.087Z,66.38
2019-05-06T03:57:24.010Z,66.61
2019-05-06T03:59:33.247Z,66.78
2019-05-06T04:01:35.571Z,67.11
2019-05-06T04:03:46.924Z,67.30
2019-05-06T04:05:45.502Z,67.39
2019-05-06T04:07:49.324Z,67.41
2019-05-06T04:09:54.149Z,67.29
2019-05-06T04:11:59.137Z,67.11
2019-05-06T04:14:06.316Z,67.12
2019-05-06T04:16:19.008Z,66.97
2019-05-06T04:18:24.119Z,66.87
2019-05-06T04:20:45.561Z,66.78
2019-05-06T04:23:07.385Z,66.88
2019-05-06T04:25:34.035Z,66.86
2019-05-06T04:27:48.083Z,66.59
2019-05-06T04:29:54.519Z,66.63
2019-05-06T04:31:58.578Z,66.74
2019-05-06T04:34:12.819Z,66.83
2019-05-06T04:36:14.103Z,66.83
2019-05-06T04:38:19.141Z,66.71
2019-05-06T04:40:23.776Z,66.55
2019-05-06T04:42:27.944Z,66.50
2019-05-06T04:44:33.111Z,66.40
2019-05-06T04:46:44.318Z,66.37
2019-05-06T04:48:54.177Z,66.33
2019-05-06T04:50:58.245Z,66.34
2019-05-06T04:53:05.414Z,66.30
2019-05-06T04:55:09.912Z,66.34
2019-05-06T04:57:14.929Z,66.46
2019-05-06T04:59:18.764Z,66.50
2019-05-06T05:01:25.829Z,66.46
2019-05-06T05:03:30.021Z,66.50
2019-05-06T05:05:34.089Z,66.51
2019-05-06T05:07:37.893Z,66.51
2019-05-06T05:09:42.957Z,66.50
2019-05-06T05:12:09.885Z,66.48
2019-05-06T05:14:45.004Z,66.50
2019-05-06T05:17:13.729Z,66.57
2019-05-06T05:19:18.146Z,66.57
2019-05-06T05:21:22.903Z,66.56
2019-05-06T05:23:26.893Z,66.55
2019-05-06T05:25:32.731Z,66.55
2019-05-06T05:27:36.530Z,66.62
2019-05-06T05:29:42.354Z,66.65
2019-05-06T05:31:46.229Z,66.79
2019-05-06T05:33:50.116Z,66.84
2019-05-06T05:35:54.146Z,66.83
2019-05-06T05:37:58.136Z,66.92
2019-05-06T05:40:03.010Z,66.82
2019-05-06T05:42:17.773Z,66.84
2019-05-06T05:44:25.277Z,66.95
2019-05-06T05:46:29.511Z,66.98
2019-05-06T05:49:02.883Z,66.98
2019-05-06T05:51:06.918Z,67.04
2019-05-06T05:53:12.187Z,66.91
2019-05-06T05:55:15.993Z,66.86
2019-05-06T05:57:19.787Z,66.92
2019-05-06T05:59:23.527Z,66.94
2019-05-06T06:01:27.394Z,66.86
2019-05-06T06:03:32.458Z,66.80
2019-05-06T06:05:36.354Z,66.73
2019-05-06T06:07:42.129Z,66.56
2019-05-06T06:09:59.656Z,66.56
2019-05-06T06:12:06.148Z,66.61
2019-05-06T06:14:33.173Z,66.60
2019-05-06T06:17:02.066Z,66.57
2019-05-06T06:19:13.364Z,66.43
2019-05-06T06:21:45.445Z,66.32
2019-05-06T06:23:52.749Z,66.23
2019-05-06T06:25:56.073Z,66.06
2019-05-06T06:27:59.957Z,65.99
2019-05-06T06:30:04.050Z,65.88
2019-05-06T06:32:15.516Z,65.67
2019-05-06T06:34:38.302Z,65.62
2019-05-06T06:36:49.403Z,65.47
2019-05-06T06:39:08.365Z,65.32
2019-05-06T06:41:12.224Z,65.26
2019-05-06T06:43:20.082Z,65.31
2019-05-06T06:45:23.873Z,65.30
2019-05-06T06:47:27.964Z,65.26
2019-05-06T06:49:32.893Z,65.11
2019-05-06T06:51:36.873Z,64.93
2019-05-06T06:53:42.121Z,64.71
2019-05-06T06:55:46.023Z,64.58
2019-05-06T06:58:11.982Z,64.45
2019-05-06T07:00:43.871Z,64.40
2019-05-06T07:03:04.750Z,64.41
2019-05-06T07:05:28.062Z,64.35
2019-05-06T07:07:41.241Z,64.18
2019-05-06T07:09:34.274Z,64.05
2019-05-06T07:11:38.194Z,64.06
2019-05-06T07:13:49.772Z,64.08
2019-05-06T07:15:54.568Z,64.14
2019-05-06T07:17:58.357Z,64.21
2019-05-06T07:20:05.442Z,64.26
2019-05-06T07:22:09.154Z,64.42
2019-05-06T07:24:13.216Z,64.51
2019-05-06T07:26:18.657Z,64.72
2019-05-06T07:28:22.899Z,64.98
2019-05-06T07:30:33.052Z,65.13
2019-05-06T07:32:38.846Z,65.25
2019-05-06T07:34:42.557Z,65.27
2019-05-06T07:36:46.566Z,65.35
2019-05-06T07:38:52.721Z,65.35
2019-05-06T07:41:05.561Z,65.34
2019-05-06T07:43:27.202Z,65.31
2019-05-06T07:45:38.665Z,65.28
2019-05-06T07:48:07.485Z,65.17
2019-05-06T07:50:13.029Z,65.07
2019-05-06T07:52:17.445Z,64.88
2019-05-06T07:54:22.053Z,64.70
2019-05-06T07:56:25.930Z,64.47
2019-05-06T07:58:32.243Z,64.42
2019-05-06T08:00:36.511Z,64.27
2019-05-06T08:02:40.256Z,64.14
2019-05-06T08:04:44.149Z,64.00
2019-05-06T08:06:47.866Z,63.86
2019-05-06T08:08:53.711Z,63.70
2019-05-06T08:10:59.234Z,63.28
2019-05-06T08:13:09.008Z,63.13
2019-05-06T08:15:13.566Z,63.01
2019-05-06T08:17:23.521Z,63.53
2019-05-06T08:19:27.459Z,63.91
2019-05-06T08:21:33.784Z,64.50
2019-05-06T08:23:45.526Z,64.61
2019-05-06T08:25:54.356Z,64.75
2019-05-06T08:27:56.238Z,64.89
2019-05-06T08:30:02.468Z,64.77
2019-05-06T08:32:05.908Z,64.57
2019-05-06T08:34:09.633Z,64.52
2019-05-06T08:36:18.547Z,64.48
2019-05-06T08:38:22.669Z,64.46
2019-05-06T08:40:26.635Z,64.28
2019-05-06T08:42:32.771Z,64.08
2019-05-06T08:44:35.962Z,63.91
2019-05-06T08:46:39.757Z,63.77
2019-05-06T08:48:43.666Z,63.33
2019-05-06T08:51:04.459Z,63.38
2019-05-06T08:53:13.958Z,63.27
2019-05-06T08:55:25.940Z,63.41
2019-05-06T08:57:29.768Z,63.23
2019-05-06T08:59:33.578Z,62.74
2019-05-06T09:01:42.688Z,62.61
2019-05-06T09:03:46.466Z,62.62
2019-05-06T09:05:56.108Z,62.30
2019-05-06T09:07:59.952Z,61.74
2019-05-06T09:10:05.325Z,61.86
2019-05-06T09:12:09.196Z,61.86
2019-05-06T09:14:13.945Z,61.63
2019-05-06T09:16:17.994Z,61.15
2019-05-06T09:18:23.931Z,61.05
2019-05-06T09:20:27.217Z,60.54
2019-05-06T09:22:32.639Z,59.60
2019-05-06T09:24:36.462Z,58.62
2019-05-06T09:26:52.246Z,56.13
2019-05-06T09:29:05.842Z,55.83
2019-05-06T09:31:23.000Z,56.44
2019-05-06T09:33:33.149Z,56.22
2019-05-06T09:35:36.959Z,53.75
2019-05-06T09:37:42.932Z,52.43
2019-05-06T09:39:46.447Z,53.28
2019-05-06T09:41:50.254Z,51.42
2019-05-06T09:43:53.943Z,51.27
2019-05-06T09:45:57.696Z,50.09
2019-05-06T09:48:16.747Z,49.91
2019-05-06T09:50:46.092Z,50.43
2019-05-06T09:52:49.446Z,49.78
2019-05-06T09:55:24.431Z,48.64
2019-05-06T09:57:33.397Z,48.92
2019-05-06T09:59:37.244Z,47.31
2019-05-06T10:01:43.530Z,46.25
2019-05-06T10:03:47.598Z,46.18
2019-05-06T10:05:53.137Z,46.45
2019-05-06T10:07:57.213Z,47.68
2019-05-06T10:10:01.073Z,46.40
2019-05-06T10:12:05.077Z,46.12
2019-05-06T10:14:08.993Z,46.06
2019-05-06T10:16:13.136Z,45.79
2019-05-06T10:18:17.151Z,46.04
2019-05-06T10:20:22.342Z,46.94
2019-05-06T10:22:26.120Z,46.92
2019-05-06T10:24:32.249Z,47.18
2019-05-06T10:26:43.031Z,47.74
2019-05-06T10:29:18.444Z,47.97
2019-05-06T10:31:22.453Z,47.21
2019-05-06T10:33:27.338Z,47.01
2019-05-06T10:35:32.309Z,46.06
2019-05-06T10:38:08.686Z,45.97
2019-05-06T10:40:18.489Z,45.29
2019-05-06T10:42:26.567Z,45.65
2019-05-06T10:44:42.600Z,45.92
2019-05-06T10:46:45.466Z,46.29
2019-05-06T10:48:49.255Z,45.95
2019-05-06T10:50:56.095Z,45.87
2019-05-06T10:53:20.934Z,46.56
2019-05-06T10:55:25.381Z,47.18
2019-05-06T10:57:33.936Z,47.79
2019-05-06T10:59:37.821Z,48.38
2019-05-06T11:01:42.967Z,49.38
2019-05-06T11:03:46.865Z,50.22
2019-05-06T11:05:53.507Z,50.22
2019-05-06T11:07:57.470Z,50.41
2019-05-06T11:10:02.616Z,50.87
2019-05-06T11:12:06.540Z,51.34
2019-05-06T11:14:12.664Z,51.69
2019-05-06T11:16:16.989Z,52.08
2019-05-06T11:18:23.411Z,51.92
2019-05-06T11:20:26.521Z,51.37
2019-05-06T11:22:32.752Z,51.00
2019-05-06T11:24:36.041Z,50.29
2019-05-06T11:26:39.784Z,50.03
2019-05-06T11:28:51.855Z,50.16
2019-05-06T11:31:09.284Z,49.71
2019-05-06T11:33:32.942Z,49.42
2019-05-06T11:36:02.184Z,49.35
2019-05-06T11:38:09.476Z,49.92
2019-05-06T11:40:16.884Z,50.32
2019-05-06T11:42:32.305Z,50.50
2019-05-06T11:44:24.681Z,50.79
2019-05-06T11:46:28.453Z,50.96
2019-05-06T11:48:32.788Z,50.96
2019-05-06T11:50:36.789Z,50.75
2019-05-06T11:52:43.412Z,50.64
2019-05-06T11:54:46.209Z,50.52
2019-05-06T11:56:54.379Z,50.36
2019-05-06T11:58:56.353Z,49.63
2019-05-06T12:01:02.938Z,49.03
2019-05-06T12:03:06.655Z,48.74
2019-05-06T12:05:10.915Z,47.80
2019-05-06T12:07:16.117Z,47.09
2019-05-06T12:09:22.112Z,46.70
2019-05-06T12:11:25.670Z,46.62
2019-05-06T12:13:30.485Z,46.50
2019-05-06T12:15:34.200Z,45.86
2019-05-06T12:17:37.917Z,45.62
2019-05-06T12:19:43.326Z,44.51
2019-05-06T12:21:48.218Z,43.75
2019-05-06T12:23:53.815Z,43.83
2019-05-06T12:25:57.614Z,42.60
2019-05-06T12:28:03.026Z,42.28
2019-05-06T12:30:07.167Z,42.25
2019-05-06T12:32:22.547Z,41.96
2019-05-06T12:34:26.251Z,41.60
2019-05-06T12:36:32.298Z,41.84
2019-05-06T12:38:37.260Z,42.33
2019-05-06T12:40:42.884Z,42.64
2019-05-06T12:42:53.251Z,42.95
2019-05-06T12:45:03.675Z,43.06
2019-05-06T12:47:38.591Z,42.19
2019-05-06T12:49:42.747Z,41.01
2019-05-06T12:51:46.639Z,40.20
2019-05-06T12:53:52.712Z,39.38
2019-05-06T12:55:56.110Z,38.29
2019-05-06T12:57:59.818Z,37.23
2019-05-06T13:00:04.419Z,36.78
2019-05-06T13:02:08.285Z,36.42
2019-05-06T13:04:13.695Z,36.09
2019-05-06T13:06:18.647Z,33.96
2019-05-06T13:08:32.461Z,33.73
2019-05-06T13:10:28.390Z,33.99
2019-05-06T13:12:33.659Z,34.65
2019-05-06T13:14:37.631Z,34.41
2019-05-06T13:16:42.488Z,34.59
2019-05-06T13:18:48.517Z,34.50
2019-05-06T13:20:52.850Z,33.92
2019-05-06T13:23:08.785Z,34.19
2019-05-06T13:25:08.182Z,34.04
2019-05-06T13:27:13.551Z,33.72
2019-05-06T13:29:22.666Z,33.33
2019-05-06T13:31:26.551Z,33.30
2019-05-06T13:34:07.392Z,33.87
2019-05-06T13:36:13.240Z,34.31
2019-05-06T13:38:16.819Z,35.38
2019-05-06T13:40:22.761Z,36.28
2019-05-06T13:42:28.990Z,36.69
2019-05-06T13:44:32.769Z,37.06
2019-05-06T13:46:39.955Z,37.13
2019-05-06T13:48:49.211Z,37.34
2019-05-06T13:50:55.689Z,37.48
2019-05-06T13:53:11.486Z,37.66
2019-05-06T13:55:12.932Z,37.81
2019-05-06T13:57:17.500Z,37.93
2019-05-06T13:59:21.312Z,38.03
2019-05-06T14:01:26.977Z,38.24
2019-05-06T14:03:32.222Z,38.27
2019-05-06T14:05:36.092Z,38.00
2019-05-06T14:07:39.909Z,37.71
2019-05-06T14:09:44.723Z,37.58
2019-05-06T14:11:48.520Z,37.52
2019-05-06T14:13:52.904Z,37.41
2019-05-06T14:15:56.840Z,37.27
2019-05-06T14:18:02.611Z,36.82
2019-05-06T14:20:07.081Z,36.39
2019-05-06T14:22:12.507Z,36.56
2019-05-06T14:24:17.568Z,36.31
2019-05-06T14:26:27.363Z,36.01
2019-05-06T14:28:43.189Z,35.67
2019-05-06T14:30:56.325Z,34.79
2019-05-06T14:33:00.054Z,34.69
2019-05-06T14:35:03.959Z,34.64
2019-05-06T14:37:07.753Z,34.30
2019-05-06T14:39:20.125Z,34.81
2019-05-06T14:41:27.346Z,34.93
2019-05-06T14:43:32.328Z,34.72
2019-05-06T14:45:36.191Z,35.01
2019-05-06T14:47:42.362Z,34.84
2019-05-06T14:49:45.865Z,34.39
2019-05-06T14:51:49.590Z,34.58
2019-05-06T14:53:53.324Z,34.67
2019-05-06T14:55:58.465Z,34.76
2019-05-06T14:58:04.473Z,34.79
2019-05-06T15:00:12.105Z,35.10
2019-05-06T15:02:16.125Z,34.59
2019-05-06T15:04:19.926Z,34.48
2019-05-06T15:06:23.731Z,34.37
2019-05-06T15:08:27.532Z,34.17
2019-05-06T15:10:32.287Z,34.33
2019-05-06T15:12:36.692Z,34.22
2019-05-06T15:14:42.446Z,34.37
2019-05-06T15:16:46.632Z,34.00
2019-05-06T15:18:50.367Z,33.94
2019-05-06T15:20:54.137Z,34.00
2019-05-06T15:22:57.932Z,34.30
2019-05-06T15:25:02.416Z,33.99
2019-05-06T15:27:06.413Z,33.97
2019-05-06T15:29:12.512Z,33.61
2019-05-06T15:31:42.074Z,33.44
2019-05-06T15:33:47.986Z,33.60
2019-05-06T15:36:16.677Z,34.00
2019-05-06T15:38:25.981Z,34.08
2019-05-06T15:40:34.201Z,34.01
2019-05-06T15:42:35.262Z,33.79
2019-05-06T15:44:38.989Z,34.01
2019-05-06T15:46:43.764Z,34.05
2019-05-06T15:48:47.576Z,34.05
2019-05-06T15:50:53.272Z,34.05
2019-05-06T15:52:56.937Z,34.12
2019-05-06T15:55:03.128Z,34.22
2019-05-06T15:57:06.334Z,34.50
2019-05-06T15:59:12.227Z,34.69
2019-05-06T16:01:15.943Z,34.94
2019-05-06T16:03:22.434Z,35.28
2019-05-06T16:05:26.721Z,35.09
2019-05-06T16:07:34.680Z,34.98
2019-05-06T16:09:36.074Z,35.24
2019-05-06T16:11:41.899Z,35.00
2019-05-06T16:13:45.295Z,35.19
2019-05-06T16:15:49.104Z,34.84
2019-05-06T16:17:53.335Z,35.06
2019-05-06T16:19:57.209Z,35.25
2019-05-06T16:22:03.919Z,35.55
2019-05-06T16:24:12.819Z,35.64
2019-05-06T16:26:16.618Z,35.52
2019-05-06T16:28:22.509Z,35.59
2019-05-06T16:30:26.105Z,35.63
2019-05-06T16:32:29.806Z,35.78
2019-05-06T16:34:33.711Z,35.75
2019-05-06T16:36:38.513Z,35.64
2019-05-06T16:38:43.344Z,35.51
2019-05-06T16:40:47.133Z,35.50
2019-05-06T16:42:53.403Z,35.34
2019-05-06T16:44:56.650Z,35.50
2019-05-06T16:47:02.699Z,35.48
2019-05-06T16:49:05.922Z,35.42
2019-05-06T16:51:09.637Z,35.59
2019-05-06T16:53:13.348Z,35.74
2019-05-06T16:55:24.273Z,35.81
2019-05-06T16:57:28.205Z,35.77
2019-05-06T16:59:33.466Z,35.96
2019-05-06T17:01:39.390Z,36.01
2019-05-06T17:03:48.547Z,36.25
2019-05-06T17:06:14.134Z,36.29
2019-05-06T17:08:18.067Z,36.52
2019-05-06T17:10:22.763Z,36.48
2019-05-06T17:12:26.674Z,36.37
2019-05-06T17:14:32.190Z,36.42
2019-05-06T17:16:36.059Z,36.52
2019-05-06T17:18:41.793Z,36.67
2019-05-06T17:20:45.246Z,36.81
2019-05-06T17:22:49.068Z,36.81
2019-05-06T17:24:52.993Z,37.00
2019-05-06T17:26:56.770Z,37.13
2019-05-06T17:29:23.732Z,37.29
2019-05-06T17:31:50.375Z,37.35
2019-05-06T17:33:54.655Z,37.21
2019-05-06T17:35:58.445Z,37.20
2019-05-06T17:38:13.543Z,37.29
2019-05-06T17:40:18.995Z,37.24
2019-05-06T17:42:22.717Z,37.27
2019-05-06T17:44:26.434Z,37.33
2019-05-06T17:46:33.843Z,37.37
2019-05-06T17:49:06.456Z,37.24
2019-05-06T17:51:33.841Z,37.22
2019-05-06T17:53:38.602Z,37.41
2019-05-06T17:55:43.268Z,37.51
2019-05-06T17:57:47.057Z,37.33
2019-05-06T17:59:52.779Z,37.42
2019-05-06T18:01:59.025Z,37.45
2019-05-06T18:04:02.791Z,37.48
2019-05-06T18:06:13.345Z,37.65
2019-05-06T18:08:12.825Z,37.87
2019-05-06T18:10:16.880Z,37.87
2019-05-06T18:12:22.562Z,37.90
2019-05-06T18:14:26.197Z,37.95
2019-05-06T18:16:30.234Z,37.97
2019-05-06T18:18:34.008Z,37.92
2019-05-06T18:20:39.101Z,38.09
2019-05-06T18:22:42.954Z,38.16
2019-05-06T18:24:46.791Z,38.09
2019-05-06T18:26:52.687Z,38.13
2019-05-06T18:28:58.491Z,38.21
2019-05-06T18:31:03.406Z,38.17
2019-05-06T18:33:07.244Z,38.30
2019-05-06T18:35:13.085Z,38.31
2019-05-06T18:37:17.668Z,38.32
2019-05-06T18:39:22.306Z,38.45
2019-05-06T18:41:29.191Z,38.49
2019-05-06T18:43:33.141Z,38.62
2019-05-06T18:45:37.436Z,38.71
2019-05-06T18:47:42.204Z,38.82
2019-05-06T18:49:45.995Z,39.05
2019-05-06T18:51:51.391Z,39.27
2019-05-06T18:53:55.263Z,39.34
2019-05-06T18:55:58.979Z,39.44
2019-05-06T18:58:02.712Z,39.58
2019-05-06T19:00:07.063Z,39.79
2019-05-06T19:02:13.345Z,39.86
2019-05-06T19:04:24.647Z,39.96
2019-05-06T19:06:28.479Z,40.02
2019-05-06T19:08:42.080Z,40.28
2019-05-06T19:10:46.039Z,40.31
2019-05-06T19:12:49.896Z,40.36
2019-05-06T19:14:53.649Z,40.40
2019-05-06T19:16:57.897Z,40.39
2019-05-06T19:19:03.822Z,40.61
2019-05-06T19:21:07.167Z,40.74
2019-05-06T19:23:12.936Z,40.70
2019-05-06T19:25:16.580Z,40.78
2019-05-06T19:27:20.350Z,40.85
2019-05-06T19:29:24.160Z,40.91
2019-05-06T19:31:27.951Z,40.95
2019-05-06T19:33:34.152Z,40.99
2019-05-06T19:35:37.273Z,41.01
2019-05-06T19:37:41.006Z,41.03
2019-05-06T19:39:44.816Z,41.15
2019-05-06T19:41:48.623Z,41.25
2019-05-06T19:43:52.511Z,41.17
2019-05-06T19:45:56.338Z,41.25
2019-05-06T19:48:00.145Z,41.52
2019-05-06T19:50:04.489Z,41.75
2019-05-06T19:52:08.205Z,42.15
2019-05-06T19:54:12.637Z,42.77
2019-05-06T19:56:16.475Z,43.13
2019-05-06T19:58:20.278Z,43.56
2019-05-06T20:00:25.490Z,44.12
2019-05-06T20:02:29.323Z,44.38
2019-05-06T20:04:33.412Z,44.66
2019-05-06T20:06:56.240Z,45.08
2019-05-06T20:09:17.407Z,45.44
2019-05-06T20:11:26.906Z,45.88
2019-05-06T20:13:32.267Z,46.06
2019-05-06T20:15:38.414Z,46.25
2019-05-06T20:17:42.516Z,46.43
2019-05-06T20:19:46.399Z,46.75
2019-05-06T20:21:52.568Z,46.86
2019-05-06T20:23:55.778Z,46.94
2019-05-06T20:25:59.668Z,47.02
2019-05-06T20:28:03.824Z,47.23
2019-05-06T20:30:08.007Z,47.39
2019-05-06T20:32:12.832Z,47.46
2019-05-06T20:34:16.625Z,47.43
2019-05-06T20:36:22.622Z,47.69
2019-05-06T20:38:25.983Z,47.69
2019-05-06T20:40:32.443Z,47.87
2019-05-06T20:42:35.150Z,48.08
2019-05-06T20:44:38.930Z,48.17
2019-05-06T20:46:42.974Z,48.23
2019-05-06T20:48:46.840Z,48.53
2019-05-06T20:50:52.359Z,48.87
2019-05-06T20:52:56.258Z,48.98
2019-05-06T20:55:00.070Z,49.15
2019-05-06T20:57:03.985Z,49.35
2019-05-06T20:59:07.817Z,49.72
2019-05-06T21:01:11.670Z,49.76
2019-05-06T21:03:15.421Z,49.87
2019-05-06T21:05:19.215Z,50.23
2019-05-06T21:07:23.213Z,50.55
2019-05-06T21:09:27.034Z,50.95
2019-05-06T21:11:32.529Z,51.36
2019-05-06T21:13:36.479Z,51.96
2019-05-06T21:15:40.276Z,52.35
2019-05-06T21:17:44.090Z,52.37
2019-05-06T21:19:47.992Z,52.35
2019-05-06T21:21:52.744Z,52.54
2019-05-06T21:23:56.939Z,52.86
2019-05-06T21:26:03.096Z,52.89
2019-05-06T21:28:06.420Z,52.86
2019-05-06T21:30:10.545Z,53.03
2019-05-06T21:32:14.591Z,52.96
2019-05-06T21:34:18.443Z,52.89
2019-05-06T21:36:23.040Z,52.68
2019-05-06T21:38:26.936Z,52.63
2019-05-06T21:40:32.304Z,52.56
2019-05-06T21:42:36.462Z,52.74
2019-05-06T21:44:40.374Z,52.75
2019-05-06T21:46:44.178Z,52.77
2019-05-06T21:48:48.041Z,52.90
2019-05-06T21:50:52.289Z,53.05
2019-05-06T21:52:56.196Z,53.14
2019-05-06T21:55:02.396Z,53.31
2019-05-06T21:57:05.650Z,53.39
2019-05-06T21:59:09.485Z,53.49
2019-05-06T22:01:13.411Z,53.67
2019-05-06T22:03:17.294Z,53.94
2019-05-06T22:05:22.682Z,54.32
2019-05-06T22:07:26.634Z,54.72
2019-05-06T22:09:32.306Z,55.05
2019-05-06T22:11:36.054Z,55.20
2019-05-06T22:13:42.384Z,55.31
2019-05-06T22:15:45.574Z,55.45
2019-05-06T22:17:49.368Z,55.29
2019-05-06T22:19:53.218Z,55.23
2019-05-06T22:22:00.439Z,55.38
2019-05-06T22:24:06.076Z,55.40
2019-05-06T22:26:15.597Z,55.47
2019-05-06T22:28:15.405Z,55.41
2019-05-06T22:30:23.705Z,55.50
2019-05-06T22:32:26.065Z,55.55
2019-05-06T22:34:29.888Z,55.64
2019-05-06T22:36:33.678Z,55.75
2019-05-06T22:38:37.470Z,55.73
2019-05-06T22:40:42.514Z,55.81
2019-05-06T22:42:47.327Z,55.86
2019-05-06T22:44:51.144Z,55.88
2019-05-06T22:46:54.933Z,56.11
2019-05-06T22:48:58.750Z,56.19
2019-05-06T22:51:02.784Z,56.40
2019-05-06T22:53:07.570Z,56.82
2019-05-06T22:55:12.977Z,56.86
2019-05-06T22:57:16.921Z,56.71
2019-05-06T22:59:24.389Z,56.80
2019-05-06T23:01:49.375Z,56.92
2019-05-06T23:03:53.151Z,56.91
2019-05-06T23:05:56.929Z,56.80
2019-05-06T23:08:02.814Z,56.87
2019-05-06T23:10:07.038Z,56.93
2019-05-06T23:12:12.294Z,57.07
2019-05-06T23:14:28.011Z,57.22
2019-05-06T23:16:21.752Z,57.28
2019-05-06T23:18:25.599Z,57.48
2019-05-06T23:20:29.382Z,57.63
2019-05-06T23:22:33.175Z,57.66
2019-05-06T23:24:37.078Z,57.67
2019-05-06T23:26:40.887Z,57.76
2019-05-06T23:28:44.700Z,57.81
2019-05-06T23:30:48.572Z,57.96
2019-05-06T23:32:52.978Z,58.17
2019-05-06T23:34:56.827Z,58.27
2019-05-06T23:37:25.372Z,58.34
2019-05-06T23:40:06.798Z,58.50
2019-05-06T23:42:48.778Z,58.52
2019-05-06T23:45:29.855Z,58.57
2019-05-06T23:48:12.050Z,58.42
2019-05-06T23:50:52.109Z,58.37
2019-05-06T23:53:32.665Z,58.43
2019-05-06T23:56:13.141Z,58.33
2019-05-06T23:58:15.551Z,58.50
